North Lilbourn, Missouri
Current Conditions -  °F | °C
As of 6:00 AM on Monday 22 Dec 2014 (Local Time) from KPOF Reporting Station
Overcast Overcast  
Wind Chill: 39°   Ceiling: 900
Heat Index: 44°   Visibility: 10mi
Dew Point: 40°   Wind: 10mph
Humidity: 85%   Direction: 160°SSE
Pressure: 29.81"   Gusts: NA
Location:  36.5917°N, 89.6449°W
Report Text: KPOF 221200Z AUTO 16009KT 10SM OVC009 07/04 A2981 RMK AO2 CIG 007V010 T00670044
Loading
Personal Weather Stations






























Interactive Weather Map New forecast layout! Learn more

10-Day Weather Forecast

Advertisements
Track Severe Weather on mobile